Time;durP1;ratioP1;P1;durP2;ratioP2;P2;SDS_P1;SDS_P2;PMS_P1;PMS_P2;Temp;Humidity;BMP_temperature;BMP_pressure;BME280_temperature;BME280_humidity;BME280_pressure;Samples;Min_cycle;Max_cycle;Signal;HPM_P1;HPM_P2
2022/04/01 00:01:26;;;;;;;8.57;3.90;;;;;;;9.77;83.78;93571.69;1723354;83;20986;-60
2022/04/01 00:03:53;;;;;;;14.97;6.23;;;;;;;9.78;84.59;93562.84;1723266;83;21528;-60
2022/04/01 00:06:20;;;;;;;9.57;4.40;;;;;;;9.83;84.78;93566.99;1723239;83;20987;-60
2022/04/01 00:08:46;;;;;;;8.37;3.63;;;;;;;9.88;84.33;93562.36;1723212;83;21026;-60
2022/04/01 00:11:13;;;;;;;8.33;4.63;;;;;;;9.89;83.73;93569.78;1723134;83;20982;-61
2022/04/01 00:13:40;;;;;;;8.30;4.07;;;;;;;9.95;83.97;93565.09;1723454;83;21025;-60
2022/04/01 00:16:06;;;;;;;7.27;3.60;;;;;;;9.93;83.62;93572.20;1723445;83;20994;-60
2022/04/01 00:18:33;;;;;;;6.33;3.93;;;;;;;9.93;83.59;93571.36;1723254;83;21496;-60
2022/04/01 00:20:59;;;;;;;9.17;4.70;;;;;;;9.84;83.41;93562.57;1723551;83;21018;-60
2022/04/01 00:23:26;;;;;;;13.27;6.73;;;;;;;9.73;85.05;93557.83;1723036;83;21038;-60
2022/04/01 00:25:53;;;;;;;6.73;3.40;;;;;;;9.78;85.39;93560.22;1723090;83;21803;-60
2022/04/01 00:28:20;;;;;;;7.63;4.53;;;;;;;9.79;84.37;93560.63;1722972;83;21025;-60
2022/04/01 00:30:47;;;;;;;9.57;5.13;;;;;;;9.73;84.30;93560.46;1723197;83;21046;-60
2022/04/01 00:33:16;;;;;;;12.07;5.93;;;;;;;9.72;85.27;93549.05;1723236;83;21073;-60
2022/04/01 00:35:43;;;;;;;18.27;7.73;;;;;;;9.80;85.26;93548.67;1723244;83;21535;-60
2022/04/01 00:38:10;;;;;;;9.67;5.00;;;;;;;9.81;84.66;93555.67;1723346;83;20974;-60
2022/04/01 00:40:37;;;;;;;10.13;5.37;;;;;;;9.78;84.25;93559.78;1722896;83;21085;-60
2022/04/01 00:43:04;;;;;;;10.80;5.07;;;;;;;9.79;84.49;93552.72;1723394;83;21527;-60
2022/04/01 00:45:31;;;;;;;8.43;4.77;;;;;;;9.79;84.25;93550.09;1723314;83;21002;-61
2022/04/01 00:48:02;;;;;;;9.57;4.87;;;;;;;9.78;84.13;93547.92;1722972;83;21034;-59
2022/04/01 00:50:31;;;;;;;6.77;4.57;;;;;;;9.79;84.16;93546.14;1723390;83;20971;-60
2022/04/01 00:53:02;;;;;;;9.50;5.00;;;;;;;9.80;84.22;93538.14;1723252;83;21468;-60
2022/04/01 00:55:29;;;;;;;6.33;4.60;;;;;;;9.79;83.68;93554.04;1723207;83;21500;-60
2022/04/01 00:57:56;;;;;;;7.37;4.37;;;;;;;9.76;83.90;93544.51;1723017;83;21002;-60
2022/04/01 01:00:25;;;;;;;7.10;4.73;;;;;;;9.74;84.57;93547.20;1723164;83;21512;-59
2022/04/01 01:02:51;;;;;;;9.23;4.93;;;;;;;9.78;84.47;93551.00;1722967;83;21041;-60
2022/04/01 01:05:18;;;;;;;26.13;9.40;;;;;;;9.74;84.16;93553.78;1723272;83;20963;-60
2022/04/01 01:07:47;;;;;;;24.17;9.17;;;;;;;9.73;84.96;93541.55;1722977;83;21559;-59
2022/04/01 01:10:16;;;;;;;28.83;13.10;;;;;;;9.80;85.15;93540.78;1723443;83;20970;-60
2022/04/01 01:12:43;;;;;;;16.53;8.97;;;;;;;9.80;84.64;93542.56;1722971;83;21038;-60
2022/04/01 01:15:13;;;;;;;15.00;7.03;;;;;;;9.77;84.18;93534.82;1723259;83;21053;-60
2022/04/01 01:17:41;;;;;;;13.87;7.57;;;;;;;9.73;84.08;93538.92;1723209;83;21022;-60
2022/04/01 01:20:15;;;;;;;20.80;10.43;;;;;;;9.66;85.15;93543.25;1723413;83;21069;-60
2022/04/01 01:22:47;;;;;;;7.33;4.00;;;;;;;9.73;85.91;93537.61;1723288;83;21026;-60
2022/04/01 01:25:15;;;;;;;9.60;3.77;;;;;;;9.82;85.31;93530.18;1723328;83;21033;-61
2022/04/01 01:27:43;;;;;;;7.23;4.80;;;;;;;9.80;84.28;93535.98;1723222;83;20994;-61
2022/04/01 01:30:11;;;;;;;6.70;2.90;;;;;;;9.76;84.19;93530.02;1723713;83;21038;-61
2022/04/01 01:32:38;;;;;;;4.20;3.07;;;;;;;9.70;84.02;93531.62;1723329;83;21065;-61
2022/04/01 01:35:08;;;;;;;3.60;2.70;;;;;;;9.71;84.30;93532.02;1723178;83;21030;-61
2022/04/01 01:37:34;;;;;;;4.37;2.80;;;;;;;9.70;84.08;93529.86;1723408;83;21021;-61
2022/04/01 01:40:03;;;;;;;9.27;3.57;;;;;;;9.70;84.32;93527.23;1723512;83;21041;-61
2022/04/01 01:42:31;;;;;;;4.97;2.77;;;;;;;9.63;83.77;93521.02;1723395;83;21468;-61
2022/04/01 01:44:58;;;;;;;4.90;3.13;;;;;;;9.57;84.26;93523.45;1723302;83;21069;-61
2022/04/01 01:47:25;;;;;;;8.97;3.60;;;;;;;9.49;85.01;93522.51;1723584;83;20979;-61
2022/04/01 01:55:22;;;;;;;8.50;4.70;;;;;;;9.42;85.83;93534.72;1723130;83;21006;-61
2022/04/01 01:57:48;;;;;;;11.30;4.77;;;;;;;9.39;85.38;93530.45;1723329;83;21022;-61
2022/04/01 02:00:20;;;;;;;50.50;16.03;;;;;;;9.34;84.90;93531.59;1723260;83;21046;-61
2022/04/01 02:02:45;;;;;;;24.40;9.83;;;;;;;9.33;85.15;93524.17;1722948;83;21563;-61
2022/04/01 02:05:11;;;;;;;12.83;5.70;;;;;;;9.35;85.23;93530.66;1723480;83;21041;-61
2022/04/01 02:07:39;;;;;;;13.17;5.60;;;;;;;9.31;85.96;93526.86;1723411;83;21015;-61
2022/04/01 02:10:07;;;;;;;18.23;8.70;;;;;;;9.27;86.77;93524.44;1723187;83;20990;-61
2022/04/01 02:12:35;;;;;;;6.80;4.37;;;;;;;9.25;86.58;93532.42;1723412;83;21544;-61
2022/04/01 02:15:02;;;;;;;5.20;3.87;;;;;;;9.26;86.17;93523.59;1723632;83;21018;-61
2022/04/01 02:17:31;;;;;;;11.00;4.73;;;;;;;9.24;86.44;93532.02;1723021;83;21070;-61
2022/04/01 02:19:59;;;;;;;10.43;5.73;;;;;;;9.24;86.17;93526.75;1723351;83;21022;-61
2022/04/01 02:22:26;;;;;;;11.63;6.03;;;;;;;9.28;86.52;93524.85;1723413;83;20982;-61
2022/04/01 02:24:53;;;;;;;17.03;6.97;;;;;;;9.38;86.68;93517.38;1723424;83;20986;-61
2022/04/01 02:27:21;;;;;;;6.93;4.00;;;;;;;9.43;86.53;93528.08;1723247;83;21060;-61
2022/04/01 02:29:48;;;;;;;8.77;4.07;;;;;;;9.43;85.59;93525.45;1723365;83;21018;-61
2022/04/01 02:32:16;;;;;;;7.87;4.07;;;;;;;9.41;85.75;93522.49;1723229;83;21048;-61
2022/04/01 02:35:01;;;;;;;16.20;8.23;;;;;;;9.41;85.99;93508.86;1723409;83;21058;-61
2022/04/01 02:37:28;;;;;;;8.97;4.27;;;;;;;9.48;86.15;93506.34;1723397;83;21488;-61
2022/04/01 02:39:56;;;;;;;6.47;3.93;;;;;;;9.54;86.10;93503.39;1723414;83;21030;-61
2022/04/01 02:42:25;;;;;;;10.03;5.17;;;;;;;9.50;85.63;93504.48;1723272;83;20998;-61
2022/04/01 02:44:52;;;;;;;6.30;3.87;;;;;;;9.52;86.23;93503.08;1723209;83;21026;-61
2022/04/01 02:47:20;;;;;;;6.87;4.13;;;;;;;9.50;85.76;93505.80;1696797;83;21018;-61
2022/04/01 02:49:47;;;;;;;5.00;3.17;;;;;;;9.43;85.48;93511.44;1723303;83;21003;-61
2022/04/01 02:52:14;;;;;;;9.87;4.73;;;;;;;9.40;86.04;93511.55;1723285;83;21042;-61
2022/04/01 02:54:41;;;;;;;8.70;3.90;;;;;;;9.31;86.21;93521.59;1723302;83;21520;-61
2022/04/01 02:57:11;;;;;;;7.90;4.17;;;;;;;9.31;86.53;93516.80;1723175;83;21018;-61
2022/04/01 02:59:38;;;;;;;6.63;4.00;;;;;;;9.37;86.55;93512.55;1723298;83;21026;-63
2022/04/01 03:02:05;;;;;;;9.80;4.23;;;;;;;9.31;86.02;93509.76;1723469;83;21014;-61
2022/04/01 03:04:32;;;;;;;7.73;3.97;;;;;;;9.24;85.41;93510.12;1723396;83;20982;-61
2022/04/01 03:07:00;;;;;;;9.90;5.10;;;;;;;9.25;85.90;93498.69;1723421;83;21053;-61
2022/04/01 03:09:27;;;;;;;7.53;4.47;;;;;;;9.34;86.19;93497.38;1723388;83;21053;-61
2022/04/01 03:12:03;;;;;;;17.00;6.43;;;;;;;9.30;85.15;93500.64;1722309;83;21117;-61
2022/04/01 03:14:49;;;;;;;9.40;4.20;;;;;;;9.17;85.05;93502.99;1723176;83;21019;-61
2022/04/01 03:17:34;;;;;;;36.33;13.93;;;;;;;9.03;85.39;93506.72;1723400;83;21033;-61
2022/04/01 03:20:04;;;;;;;31.87;12.17;;;;;;;9.02;85.90;93510.25;1722866;83;21062;-61
2022/04/01 03:22:32;;;;;;;18.47;9.43;;;;;;;9.08;86.13;93504.26;1723454;83;21002;-62
2022/04/01 03:24:58;;;;;;;15.40;7.97;;;;;;;9.07;86.08;93503.00;1723373;83;21018;-62
2022/04/01 03:27:26;;;;;;;18.47;8.13;;;;;;;9.06;86.09;93506.09;1696556;83;20962;-62
2022/04/01 03:29:53;;;;;;;17.10;9.47;;;;;;;8.98;85.97;93495.55;1723360;83;21511;-62
2022/04/01 03:32:20;;;;;;;9.57;5.77;;;;;;;8.91;85.23;93504.17;1723191;83;21030;-61
2022/04/01 03:34:47;;;;;;;9.90;5.27;;;;;;;8.84;84.96;93502.74;1723375;83;21010;-61
2022/04/01 03:37:14;;;;;;;10.97;5.43;;;;;;;8.74;84.82;93506.71;1723381;83;21025;-61
2022/04/01 03:39:42;;;;;;;9.07;5.33;;;;;;;8.65;85.37;93511.47;1723271;83;21097;-61
2022/04/01 03:42:09;;;;;;;8.30;5.50;;;;;;;8.57;85.10;93498.28;1722994;83;21026;-61
2022/04/01 03:44:37;;;;;;;9.97;5.60;;;;;;;8.56;85.57;93510.55;1723348;83;21496;-61
2022/04/01 03:47:18;;;;;;;7.87;5.00;;;;;;;8.56;85.57;93505.76;1719771;83;21514;-61
2022/04/01 03:49:50;;;;;;;8.63;4.70;;;;;;;8.57;85.42;93507.02;1722684;83;21551;-61
2022/04/01 03:52:19;;;;;;;6.65;4.03;;;;;;;8.57;85.66;93512.28;1723550;83;21004;-61
2022/04/01 03:54:48;;;;;;;9.80;5.37;;;;;;;8.55;85.69;93515.89;1723146;83;21054;-61
2022/04/01 03:57:35;;;;;;;9.53;5.03;;;;;;;8.55;86.56;93519.84;1720681;83;21018;-60
2022/04/01 04:00:20;;;;;;;10.13;5.90;;;;;;;8.52;86.53;93519.98;1723124;83;21038;-62
2022/04/01 04:02:47;;;;;;;8.20;4.53;;;;;;;8.51;86.34;93524.82;1723355;83;20994;-61
2022/04/01 04:05:18;;;;;;;8.03;4.67;;;;;;;8.52;86.61;93522.61;1722702;83;21042;-62
2022/04/01 04:07:46;;;;;;;8.87;5.10;;;;;;;8.50;87.17;93525.75;1723298;83;21015;-62
2022/04/01 04:10:15;;;;;;;9.17;4.93;;;;;;;8.48;86.38;93524.50;1723294;83;21034;-62
2022/04/01 04:12:44;;;;;;;10.97;5.73;;;;;;;8.53;87.20;93521.67;1695884;83;21014;-62
2022/04/01 04:15:11;;;;;;;9.73;5.77;;;;;;;8.55;86.81;93524.63;1723346;83;21010;-61
2022/04/01 04:17:44;;;;;;;13.57;7.67;;;;;;;8.60;88.02;93524.43;1723278;83;21006;-62
2022/04/01 04:20:18;;;;;;;26.45;12.65;;;;;;;8.63;88.25;93524.29;1723373;83;21488;-62
2022/04/01 04:23:10;;;;;;;15.60;9.10;;;;;;;8.71;88.41;93525.26;1723167;83;21048;-61
2022/04/01 04:25:38;;;;;;;11.07;7.07;;;;;;;8.77;87.89;93521.03;1723261;83;21515;-60
2022/04/01 04:28:12;;;;;;;18.67;11.50;;;;;;;8.82;87.90;93520.36;1723175;83;21002;-60
2022/04/01 04:30:50;;;;;;;15.83;7.47;;;;;;;8.91;88.32;93526.53;1723258;83;21046;-61
2022/04/01 04:33:31;;;;;;;17.07;9.07;;;;;;;9.05;88.01;93533.81;1721613;83;21523;-60
2022/04/01 04:36:04;;;;;;;16.83;10.30;;;;;;;9.04;87.92;93529.45;1696923;83;21014;-62
2022/04/01 04:38:40;;;;;;;17.47;10.80;;;;;;;9.10;88.22;93528.72;1723058;83;21049;-61
2022/04/01 04:41:08;;;;;;;11.90;8.53;;;;;;;9.12;88.11;93526.47;1723215;83;21042;-61
2022/04/01 04:43:47;;;;;;;17.23;9.53;;;;;;;9.09;87.55;93525.68;1723227;83;21520;-61
2022/04/01 04:46:15;;;;;;;13.40;8.30;;;;;;;9.12;87.08;93535.67;1723174;83;21081;-62
2022/04/01 04:48:43;;;;;;;13.73;7.83;;;;;;;9.15;87.51;93534.22;1723249;83;21045;-61
2022/04/01 04:51:10;;;;;;;14.13;8.10;;;;;;;9.24;87.46;93540.38;1723164;83;21006;-62
2022/04/01 04:53:39;;;;;;;20.37;9.10;;;;;;;9.25;87.76;93541.64;1719536;83;21070;-61
2022/04/01 04:56:07;;;;;;;15.83;8.70;;;;;;;9.30;87.74;93548.85;1723286;83;21512;-62
2022/04/01 04:58:40;;;;;;;13.50;7.33;;;;;;;9.34;87.83;93538.17;1723273;83;21049;-61
2022/04/01 05:01:30;;;;;;;9.18;6.80;;;;;;;9.35;87.24;93540.75;1723549;83;21026;-60
2022/04/01 05:04:39;;;;;;;24.00;12.47;;;;;;;9.35;87.23;93549.96;1722604;83;21061;-63
2022/04/01 05:07:40;;;;;;;15.33;8.17;;;;;;;9.31;87.39;93548.39;1716076;83;21018;-67
2022/04/01 05:10:27;;;;;;;16.87;10.53;;;;;;;9.36;87.54;93538.97;1716928;83;21116;-64
2022/04/01 05:13:25;;;;;;;24.67;13.50;;;;;;;9.40;87.29;93540.08;1722005;83;21060;-63
2022/04/01 05:16:06;;;;;;;33.27;15.50;;;;;;;9.48;87.95;93537.92;1721835;83;21030;-64
2022/04/01 05:18:43;;;;;;;41.10;19.37;;;;;;;9.60;88.18;93530.35;1696975;83;20974;-65
2022/04/01 05:21:20;;;;;;;46.10;25.43;;;;;;;9.75;88.14;93532.25;1722632;83;21038;-66
2022/04/01 05:24:02;;;;;;;41.40;22.53;;;;;;;9.85;87.68;93531.34;1724815;82;21620;-64
2022/04/01 05:26:38;;;;;;;40.50;22.10;;;;;;;9.97;87.54;93542.59;1754225;82;21489;-63
2022/04/01 05:29:26;;;;;;;30.43;16.97;;;;;;;10.06;86.94;93533.41;1703351;82;20998;-64
2022/04/01 05:32:06;;;;;;;26.53;15.67;;;;;;;10.13;86.38;93527.75;1752896;82;20978;-63
2022/04/01 05:34:46;;;;;;;36.83;19.63;;;;;;;10.22;86.57;93528.22;1750000;81;21452;-64
2022/04/01 05:37:16;;;;;;;22.60;13.00;;;;;;;10.28;86.25;93534.08;1747347;80;21054;-62
2022/04/01 05:39:48;;;;;;;30.83;13.87;;;;;;;10.27;85.52;93536.27;1728429;80;21034;-66
2022/04/01 05:42:18;;;;;;;25.87;14.40;;;;;;;10.12;85.29;93527.81;1740214;81;21008;-63
2022/04/01 05:44:52;;;;;;;17.10;9.45;;;;;;;10.02;85.68;93514.24;1707868;80;21532;-61
2022/04/01 05:47:21;;;;;;;31.47;18.10;;;;;;;9.95;85.68;93526.89;1751405;80;20984;-64
2022/04/01 05:49:48;;;;;;;24.63;14.60;;;;;;;9.86;86.00;93515.47;1751500;82;21456;-62
2022/04/01 05:52:16;;;;;;;29.40;15.50;;;;;;;9.84;85.94;93521.75;1751434;80;21094;-63
2022/04/01 05:54:44;;;;;;;20.47;11.93;;;;;;;9.83;85.90;93519.58;1744375;82;21083;-64
2022/04/01 05:57:11;;;;;;;17.23;9.50;;;;;;;9.83;86.00;93510.84;1751581;82;20986;-61
2022/04/01 05:59:39;;;;;;;20.80;12.77;;;;;;;9.76;85.89;93511.59;1751760;82;21034;-64
2022/04/01 06:03:02;;;;;;;17.47;12.30;;;;;;;9.70;86.06;93515.37;1733564;82;20990;-62
2022/04/01 06:05:40;;;;;;;31.70;17.17;;;;;;;9.71;85.61;93507.01;1746559;82;21501;-63
2022/04/01 06:08:37;;;;;;;33.53;20.00;;;;;;;9.69;86.64;93512.80;1749130;82;21022;-64
2022/04/01 06:11:22;;;;;;;16.23;11.87;;;;;;;9.73;86.65;93503.84;1726756;81;21022;-64
2022/04/01 06:14:11;;;;;;;18.50;12.73;;;;;;;9.83;86.79;93498.52;1723915;81;21498;-63
2022/04/01 06:17:00;;;;;;;18.62;11.65;;;;;;;9.92;86.73;93494.55;1742006;82;21096;-64
2022/04/01 06:19:36;;;;;;;19.37;10.67;;;;;;;10.02;86.52;93506.34;1751087;82;20983;-63
2022/04/01 06:22:07;;;;;;;17.97;9.30;;;;;;;10.07;86.68;93502.16;1753524;82;21003;-63
2022/04/01 06:24:58;;;;;;;13.40;9.28;;;;;;;10.14;86.95;93497.83;1724386;82;21524;-62
2022/04/01 06:27:48;;;;;;;10.27;7.30;;;;;;;10.28;86.72;93504.20;1754553;82;21467;-62
2022/04/01 06:30:23;;;;;;;14.00;8.93;;;;;;;10.45;86.87;93504.66;1753974;82;21066;-64
2022/04/01 06:33:27;;;;;;;12.80;9.77;;;;;;;10.54;86.02;93513.43;1744080;81;21073;-63
2022/04/01 06:35:59;;;;;;;10.87;6.63;;;;;;;10.63;85.66;93507.66;1747263;81;21109;-62
2022/04/01 06:38:51;;;;;;;14.47;9.83;;;;;;;10.88;85.66;93520.89;1747424;81;21078;-65
2022/04/01 06:41:25;;;;;;;13.67;8.23;;;;;;;10.98;84.82;93509.75;1747489;81;21482;-63
2022/04/01 06:43:54;;;;;;;9.17;6.47;;;;;;;11.09;83.93;93512.28;1748346;81;20981;-62
2022/04/01 06:46:40;;;;;;;9.20;6.17;;;;;;;11.17;83.44;93527.26;1748797;81;21063;-62
2022/04/01 06:49:11;;;;;;;8.85;6.20;;;;;;;11.24;83.28;93527.32;1748053;81;21548;-63
2022/04/01 06:51:56;;;;;;;11.45;7.12;;;;;;;11.29;81.98;93524.41;1748174;82;20992;-64
2022/04/01 06:54:26;;;;;;;9.40;7.05;;;;;;;11.32;82.54;93513.70;1748420;81;21500;-63
2022/04/01 06:57:04;;;;;;;12.23;6.78;;;;;;;11.46;83.05;93502.77;1747021;82;21027;-63
2022/04/01 06:59:34;;;;;;;9.75;6.55;;;;;;;11.72;82.84;93495.17;1746964;81;21071;-64
2022/04/01 07:02:01;;;;;;;13.28;5.33;;;;;;;11.98;83.00;93496.34;1748862;81;21563;-63
2022/04/01 07:04:28;;;;;;;10.28;5.50;;;;;;;12.27;81.44;93493.79;1737516;81;21027;-63
2022/04/01 07:06:59;;;;;;;8.30;5.87;;;;;;;12.45;81.02;93487.44;1737700;82;21037;-63
2022/04/01 07:09:26;;;;;;;7.67;4.78;;;;;;;12.64;80.29;93477.06;1736919;82;21097;-62
2022/04/01 07:11:53;;;;;;;6.10;4.70;;;;;;;12.82;80.05;93485.67;1737504;82;21072;-63
2022/04/01 07:14:20;;;;;;;7.33;5.22;;;;;;;13.01;79.57;93495.52;1737619;82;21499;-62
2022/04/01 07:16:46;;;;;;;7.50;5.17;;;;;;;13.07;78.98;93479.25;1737731;82;21069;-63
2022/04/01 07:19:13;;;;;;;8.95;5.95;;;;;;;13.14;77.56;93473.95;1737463;82;21070;-62
2022/04/01 07:21:40;;;;;;;6.53;3.90;;;;;;;13.20;77.60;93464.31;1737464;82;21088;-63
2022/04/01 07:24:08;;;;;;;7.35;4.60;;;;;;;13.34;77.56;93470.09;1737508;82;21113;-63
2022/04/01 07:26:35;;;;;;;7.08;3.65;;;;;;;13.44;77.20;93458.92;1737498;82;21023;-62
2022/04/01 07:29:02;;;;;;;7.83;4.53;;;;;;;13.57;77.48;93457.17;1737596;82;21528;-62
2022/04/01 07:34:16;;;;;;;6.50;4.03;;;;;;;13.62;75.95;93455.92;1737102;82;21572;-63
2022/04/01 07:36:42;;;;;;;9.88;4.47;;;;;;;13.67;76.09;93461.41;1737258;81;21353;-63
2022/04/01 07:39:09;;;;;;;7.78;4.72;;;;;;;13.78;76.08;93452.27;1738082;82;21069;-65
2022/04/01 07:41:36;;;;;;;5.72;4.50;;;;;;;13.91;76.08;93449.67;1716607;82;20979;-64
2022/04/01 07:44:03;;;;;;;6.08;3.95;;;;;;;14.03;76.21;93455.01;1737102;82;21088;-64
2022/04/01 07:46:30;;;;;;;9.08;4.10;;;;;;;14.18;75.26;93451.81;1736742;82;20987;-64
2022/04/01 07:48:56;;;;;;;7.70;4.70;;;;;;;14.36;74.77;93450.21;1737402;82;21102;-63
2022/04/01 07:51:23;;;;;;;43.95;21.62;;;;;;;14.49;74.29;93451.10;1736735;82;21041;-63
2022/04/01 07:53:49;;;;;;;9.58;5.67;;;;;;;14.60;73.72;93454.37;1737110;82;21054;-63
2022/04/01 07:56:16;;;;;;;6.62;4.33;;;;;;;14.71;73.59;93458.45;1737056;82;21539;-63
2022/04/01 07:58:43;;;;;;;9.05;5.92;;;;;;;14.79;73.08;93457.92;1737015;82;21019;-62
2022/04/01 08:01:10;;;;;;;6.30;4.10;;;;;;;14.90;73.02;93462.88;1737140;82;21463;-62
2022/04/01 08:03:41;;;;;;;10.38;4.78;;;;;;;15.02;73.26;93457.66;1737710;82;21023;-61
2022/04/01 08:06:05;;;;;;;10.88;6.85;;;;;;;15.10;72.86;93461.97;1737205;82;21046;-62
2022/04/01 08:08:32;;;;;;;9.48;6.78;;;;;;;15.10;72.07;93459.31;1737812;82;21046;-66
2022/04/01 08:10:58;;;;;;;8.55;5.58;;;;;;;15.06;71.98;93455.16;1737912;82;21492;-65
2022/04/01 08:13:25;;;;;;;7.22;4.78;;;;;;;14.97;72.06;93456.67;1737511;82;21003;-62
2022/04/01 08:15:51;;;;;;;14.50;9.68;;;;;;;14.73;71.71;93462.34;1737682;82;21109;-62
2022/04/01 08:18:19;;;;;;;11.25;7.80;;;;;;;14.57;72.27;93454.59;1736939;82;21038;-62
2022/04/01 08:20:46;;;;;;;10.80;6.10;;;;;;;14.48;72.58;93461.33;1736595;82;21022;-62
2022/04/01 08:23:13;;;;;;;12.07;7.08;;;;;;;14.42;72.92;93461.75;1736614;82;21111;-62
2022/04/01 08:25:39;;;;;;;14.80;9.63;;;;;;;14.23;73.49;93461.64;1736526;82;21053;-61
2022/04/01 08:28:07;;;;;;;17.17;8.60;;;;;;;14.16;73.54;93476.29;1737401;82;21081;-61
2022/04/01 08:30:34;;;;;;;11.65;5.33;;;;;;;14.06;73.35;93461.91;1737118;82;21564;-61
2022/04/01 08:33:01;;;;;;;10.15;6.10;;;;;;;14.06;74.19;93462.78;1743260;82;20952;-63
2022/04/01 08:35:28;;;;;;;14.43;7.60;;;;;;;14.01;74.28;93463.56;1737622;82;21024;-61
2022/04/01 08:37:57;;;;;;;9.60;7.15;;;;;;;13.98;73.85;93455.79;1748245;82;21102;-63
2022/04/01 08:40:24;;;;;;;13.08;6.80;;;;;;;14.04;74.18;93463.36;1747758;81;21055;-63
2022/04/01 08:42:51;;;;;;;14.35;8.30;;;;;;;14.10;73.88;93467.39;1741500;82;21027;-61
2022/04/01 08:45:20;;;;;;;13.78;11.08;;;;;;;14.11;74.55;93461.61;1730017;82;22231;-61
2022/04/01 08:47:48;;;;;;;33.05;29.75;;;;;;;14.22;73.71;93453.80;1734809;81;21003;-61
2022/04/01 08:50:15;;;;;;;12.03;8.05;;;;;;;14.39;73.83;93460.16;1727530;82;21183;-61
2022/04/01 08:52:41;;;;;;;10.45;5.92;;;;;;;14.49;73.44;93450.62;1699770;83;21035;-61
2022/04/01 08:55:10;;;;;;;13.65;5.95;;;;;;;14.66;73.79;93438.02;1724382;82;21030;-63
2022/04/01 08:57:39;;;;;;;14.30;8.20;;;;;;;14.69;72.81;93442.66;1725927;82;21062;-67
2022/04/01 09:00:17;;;;;;;13.10;7.65;;;;;;;14.74;72.95;93443.67;1711687;83;21098;-62
2022/04/01 09:02:48;;;;;;;19.65;9.78;;;;;;;14.79;71.98;93431.37;1712927;84;21007;-61
2022/04/01 09:05:15;;;;;;;10.90;8.10;;;;;;;14.87;72.65;93436.55;1710582;83;21082;-62
2022/04/01 09:07:43;;;;;;;14.87;8.48;;;;;;;14.89;71.81;93437.75;1748751;82;21087;-61
2022/04/01 09:10:10;;;;;;;8.73;6.08;;;;;;;14.81;71.62;93441.42;1749297;81;21067;-61
2022/04/01 09:12:51;;;;;;;11.38;5.20;;;;;;;14.76;71.90;93449.70;1749041;82;21031;-61
2022/04/01 09:15:19;;;;;;;14.38;6.15;;;;;;;14.68;72.00;93444.92;1749225;82;21477;-61
2022/04/01 09:17:48;;;;;;;18.55;10.18;;;;;;;14.57;72.84;93434.69;1748891;81;21494;-61
2022/04/01 09:20:15;;;;;;;11.00;7.70;;;;;;;14.55;73.00;93438.77;1749106;82;20979;-61
2022/04/01 09:22:44;;;;;;;10.50;4.78;;;;;;;14.59;72.49;93438.94;1748902;82;20996;-61
2022/04/01 09:25:15;;;;;;;7.12;5.37;;;;;;;14.60;72.42;93441.95;1712413;83;20970;-62
2022/04/01 09:27:46;;;;;;;12.58;7.78;;;;;;;14.61;71.82;93442.79;1748120;81;21114;-61
2022/04/01 09:30:20;;;;;;;17.20;11.53;;;;;;;14.64;72.28;93439.47;1748829;82;21011;-61
2022/04/01 09:32:55;;;;;;;16.10;11.22;;;;;;;14.71;71.63;93434.08;1748872;81;21024;-61
2022/04/01 09:35:28;;;;;;;13.10;7.72;;;;;;;14.77;71.86;93435.48;1755187;81;21062;-61
2022/04/01 09:38:01;;;;;;;8.03;5.03;;;;;;;14.76;71.28;93440.41;1762723;81;21078;-61
2022/04/01 09:40:28;;;;;;;;;;;;;;;14.74;70.70;93438.36;1765086;81;21496;-62
2022/04/01 09:42:58;;;;;;;8.28;4.33;;;;;;;14.68;70.56;93450.71;1762615;81;20120;-64
2022/04/01 09:45:28;;;;;;;7.92;4.00;;;;;;;14.61;70.44;93454.73;1762733;81;21022;-61
2022/04/01 09:48:08;;;;;;;13.35;7.37;;;;;;;14.57;70.76;93440.00;1762553;81;20998;-61
2022/04/01 09:50:42;;;;;;;11.95;5.30;;;;;;;14.62;70.74;93430.75;1762405;81;20975;-61
2022/04/01 09:53:19;;;;;;;9.18;4.33;;;;;;;14.74;71.20;93435.70;1745243;81;21903;-60
2022/04/01 09:55:49;;;;;;;11.90;5.47;;;;;;;14.83;70.14;93429.73;1762738;81;20991;-60
2022/04/01 09:58:20;;;;;;;10.38;6.53;;;;;;;14.92;70.43;93429.11;1762493;81;21030;-60
2022/04/01 10:00:46;;;;;;;6.95;3.72;;;;;;;15.06;69.80;93416.66;1762971;81;21105;-60
2022/04/01 10:03:15;;;;;;;8.63;4.78;;;;;;;15.15;69.04;93420.00;1768246;80;21018;-61
2022/04/01 10:05:45;;;;;;;11.18;6.28;;;;;;;15.14;67.39;93424.47;1783527;80;21057;-60
2022/04/01 10:08:14;;;;;;;13.32;6.00;;;;;;;15.16;68.41;93423.02;1783476;80;21030;-60
2022/04/01 10:10:44;;;;;;;11.65;7.33;;;;;;;15.20;68.99;93423.17;1783605;80;21006;-60
2022/04/01 10:13:29;;;;;;;14.25;7.12;;;;;;;15.19;68.94;93427.25;1783387;80;21007;-61
2022/04/01 10:15:59;;;;;;;15.30;8.28;;;;;;;15.22;69.50;93432.34;1783561;80;21010;-60
2022/04/01 10:18:27;;;;;;;10.78;6.33;;;;;;;15.23;69.53;93429.59;1783897;80;21034;-61
2022/04/01 10:20:55;;;;;;;12.18;5.65;;;;;;;15.14;69.90;93430.23;1783493;80;21082;-60
2022/04/01 10:23:25;;;;;;;11.05;7.80;;;;;;;15.04;70.40;93431.84;1783595;80;21473;-60
2022/04/01 10:26:02;;;;;;;11.88;7.20;;;;;;;14.97;71.29;93438.53;1783576;80;21023;-60
2022/04/01 10:28:29;;;;;;;13.95;8.53;;;;;;;14.83;71.00;93450.97;1783320;80;21523;-60
2022/04/01 10:30:59;;;;;;;6.37;4.00;;;;;;;14.68;71.95;93471.95;1783783;80;21010;-59
2022/04/01 10:33:33;;;;;;;6.10;2.22;;;;;;;14.51;71.82;93486.31;1783526;80;21006;-60
2022/04/01 10:35:58;;;;;;;5.55;1.20;;;;;;;14.35;67.40;93466.61;1777977;80;21062;-60
2022/04/01 10:38:33;;;;;;;6.42;2.02;;;;;;;14.17;67.15;93460.73;1774845;81;21034;-60
2022/04/01 10:41:12;;;;;;;3.60;1.17;;;;;;;14.10;68.41;93463.90;1775114;80;20999;-60
2022/04/01 10:43:42;;;;;;;5.40;1.70;;;;;;;14.13;68.97;93470.32;1774423;81;21042;-60
2022/04/01 10:46:16;;;;;;;9.43;3.20;;;;;;;14.02;70.49;93471.88;1775037;80;21038;-60
2022/04/01 10:52:18;;;;;;;8.80;5.05;;;;;;;13.83;70.46;93464.30;1775287;81;21027;-61
2022/04/01 10:54:48;;;;;;;22.90;8.88;;;;;;;13.80;72.04;93459.17;1775207;81;21010;-61
2022/04/01 10:57:30;;;;;;;8.20;3.25;;;;;;;13.88;73.58;93448.55;1774786;81;21030;-61
2022/04/01 11:00:08;;;;;;;5.75;2.05;;;;;;;14.01;75.03;93437.50;1775017;81;21011;-60
2022/04/01 11:02:35;;;;;;;9.90;4.45;;;;;;;14.32;71.53;93428.36;1775052;81;21539;-60
2022/04/01 11:05:23;;;;;;;8.98;3.25;;;;;;;14.68;71.47;93426.82;1774722;81;21465;-60
2022/04/01 11:08:16;;;;;;;5.95;1.30;;;;;;;14.96;70.25;93414.28;1774756;80;21473;-60
2022/04/01 11:11:09;;;;;;;;;;;;;;;15.21;66.89;93405.42;1777574;80;21019;-60
2022/04/01 11:13:37;;;;;;;5.20;1.67;;;;;;;15.50;68.04;93394.03;1774664;81;20179;-60
2022/04/01 11:16:25;;;;;;;13.48;4.58;;;;;;;15.84;67.91;93391.57;1774971;81;21015;-60
2022/04/01 11:19:14;;;;;;;;;;;;;;;16.10;66.08;93376.31;1775927;80;21496;-60
2022/04/01 11:21:39;;;;;;;3.67;1.50;;;;;;;16.63;66.43;93386.00;1774112;80;20111;-60
2022/04/01 11:24:22;;;;;;;6.12;1.55;;;;;;;17.02;64.52;93377.23;1774698;81;21042;-61
2022/04/01 11:26:50;;;;;;;5.05;1.55;;;;;;;17.49;63.79;93365.44;1774290;80;21496;-60
2022/04/01 11:29:21;;;;;;;3.77;1.20;;;;;;;17.91;62.54;93360.23;1774826;81;21493;-61
2022/04/01 11:31:49;;;;;;;4.65;1.80;;;;;;;18.36;61.38;93357.36;1774943;81;21524;-61
2022/04/01 11:34:15;;;;;;;5.30;1.30;;;;;;;18.51;59.19;93364.56;1774965;81;21046;-61
2022/04/01 11:36:43;;;;;;;4.40;1.47;;;;;;;18.87;59.87;93366.42;1774804;80;21104;-61
2022/04/01 11:39:17;;;;;;;5.92;1.42;;;;;;;19.46;57.07;93346.13;1774833;80;20974;-61
2022/04/01 11:41:47;;;;;;;5.20;1.80;;;;;;;19.99;55.70;93352.52;1774881;81;21553;-61
2022/04/01 11:44:15;;;;;;;4.28;1.27;;;;;;;20.37;52.33;93353.50;1774877;80;20979;-61
2022/04/01 11:46:53;;;;;;;6.15;1.70;;;;;;;20.72;51.57;93350.23;1774584;81;21007;-61
2022/04/01 11:49:26;;;;;;;6.97;2.08;;;;;;;20.46;50.47;93353.99;1774683;81;20999;-61
2022/04/01 11:51:53;;;;;;;;;;;;;;;20.12;51.24;93350.89;1777580;81;20975;-61
2022/04/01 11:54:20;;;;;;;6.35;1.40;;;;;;;20.26;52.07;93352.28;1775125;81;20120;-61
2022/04/01 11:56:53;;;;;;;6.72;2.10;;;;;;;20.08;51.37;93352.15;1774660;81;21070;-61
2022/04/01 11:59:19;;;;;;;;;;;;;;;19.82;49.28;93354.53;1777220;80;21046;-61
2022/04/01 12:01:55;;;;;;;9.53;2.20;;;;;;;19.62;50.12;93346.92;1775049;81;20138;-60
2022/04/01 12:04:34;;;;;;;5.97;1.85;;;;;;;19.52;45.94;93345.56;1775041;81;21010;-60
2022/04/01 12:09:59;;;;;;;11.73;2.58;;;;;;;19.43;47.06;93340.56;1774877;81;21501;-60